Time;durP1;ratioP1;P1;durP2;ratioP2;P2;SDS_P1;SDS_P2;PMS_P1;PMS_P2;Temp;Humidity;BMP_temperature;BMP_pressure;BME280_temperature;BME280_humidity;BME280_pressure;Samples;Min_cycle;Max_cycle;Signal;HPM_P1;HPM_P2
2023/06/10 15:24:10;;;;;;;0.82;0.82;;;;;;;;;;7401589;19;20141;-86
2023/06/10 15:26:57;;;;;;;1.40;1.30;;;;;;;;;;7397525;19;20629;-87
2023/06/10 15:29:36;;;;;;;1.17;1.17;;;;;;;;;;7394226;19;20141;-88
2023/06/10 15:33:06;;;;;;;1.27;1.23;;;;;;;;;;7392940;19;20185;-86
2023/06/10 15:36:11;;;;;;;1.55;1.38;;;;;;;;;;7397645;19;20574;-89
2023/06/10 15:38:47;;;;;;;2.38;1.55;;;;;;;;;;7403773;19;20610;-90
2023/06/10 15:41:25;;;;;;;1.55;1.45;;;;;;;;;;7400249;19;20168;-88
2023/06/10 15:43:52;;;;;;;1.25;1.15;;;;;;;;;;7394350;19;20133;-89
2023/06/10 15:46:44;;;;;;;2.17;2.03;;;;;;;;;;7392423;19;20154;-90
2023/06/10 15:49:25;;;;;;;1.80;1.70;;;;;;;;;;7390936;19;20535;-86
2023/06/10 15:51:52;;;;;;;1.25;1.25;;;;;;;;;;7388399;19;20182;-87
2023/06/10 15:54:19;;;;;;;3.88;3.55;;;;;;;;;;7393936;19;20165;-87
2023/06/10 15:56:46;;;;;;;4.30;3.67;;;;;;;;;;7388398;19;20144;-87
2023/06/10 15:59:35;;;;;;;3.40;3.13;;;;;;;;;;7392101;19;20143;-88
2023/06/10 16:02:13;;;;;;;2.45;2.28;;;;;;;;;;7395445;19;20180;-86
2023/06/10 16:04:39;;;;;;;1.67;1.58;;;;;;;;;;7394013;19;20156;-86
2023/06/10 16:07:06;;;;;;;1.92;1.83;;;;;;;;;;7387346;19;20540;-87
2023/06/10 16:09:35;;;;;;;2.67;2.47;;;;;;;;;;7395366;19;20141;-86
2023/06/10 16:12:05;;;;;;;1.92;1.83;;;;;;;;;;7394567;19;21119;-86
2023/06/10 16:14:32;;;;;;;2.03;1.85;;;;;;;;;;7393610;19;20136;-84
2023/06/10 16:16:59;;;;;;;1.83;1.73;;;;;;;;;;7396596;19;20587;-85
2023/06/10 16:19:25;;;;;;;2.25;2.05;;;;;;;;;;7396734;19;20153;-85
2023/06/10 16:21:52;;;;;;;1.45;1.45;;;;;;;;;;7393508;19;20160;-86
2023/06/10 16:24:19;;;;;;;1.10;1.10;;;;;;;;;;7391864;19;20684;-87
2023/06/10 16:26:48;;;;;;;1.02;1.02;;;;;;;;;;7389487;19;20668;-87
2023/06/10 16:29:15;;;;;;;1.63;1.52;;;;;;;;;;7393975;19;20137;-86
2023/06/10 16:31:42;;;;;;;1.65;1.55;;;;;;;;;;7393774;19;20257;-85
2023/06/10 16:34:09;;;;;;;1.55;1.45;;;;;;;;;;7394047;19;20149;-85
2023/06/10 16:37:00;;;;;;;1.75;1.65;;;;;;;;;;7392875;19;20159;-85
2023/06/10 16:40:01;;;;;;;1.23;1.13;;;;;;;;;;7386337;19;20165;-85
2023/06/10 16:46:02;;;;;;;1.33;1.23;;;;;;;;;;7390755;19;20159;-85
2023/06/10 16:48:45;;;;;;;1.13;1.13;;;;;;;;;;7396779;19;20129;-85
2023/06/10 16:51:26;;;;;;;5.30;1.77;;;;;;;;;;7381544;19;20791;-84
2023/06/10 16:54:26;;;;;;;1.10;1.05;;;;;;;;;;7400387;19;20485;-84
2023/06/10 16:57:23;;;;;;;1.50;1.40;;;;;;;;;;7397706;19;20175;-85
2023/06/10 17:00:49;;;;;;;;;;;;;;;;;;;;;
2023/06/10 17:04:40;;;;;;;1.38;1.27;;;;;;;;;;7394698;19;20168;-83
2023/06/10 17:14:13;;;;;;;1.17;1.17;;;;;;;;;;7367910;19;20539;-88
2023/06/10 17:16:55;;;;;;;1.10;1.02;;;;;;;;;;7392578;19;20153;-92
2023/06/10 18:07:29;;;;;;;1.05;0.95;;;;;;;;;;7357028;19;20196;-86
2023/06/10 18:10:19;;;;;;;0.82;0.82;;;;;;;;;;7391966;19;20176;-87
2023/06/10 18:13:05;;;;;;;;;;;;;;;;;;;;;
2023/06/10 18:15:46;;;;;;;0.80;0.80;;;;;;;;;;7396495;19;20243;-89
2023/06/10 18:18:25;;;;;;;0.90;0.90;;;;;;;;;;7402452;19;20606;-87
2023/06/10 18:27:27;;;;;;;1.10;1.00;;;;;;;;;;7401365;19;20136;-88
2023/06/10 18:30:48;;;;;;;0.85;0.85;;;;;;;;;;7400919;19;20662;-89
2023/06/10 18:46:22;;;;;;;1.10;1.10;;;;;;;;;;7402569;19;20127;-87
2023/06/10 18:48:50;;;;;;;1.10;1.05;;;;;;;;;;7399771;19;20166;-88
2023/06/10 18:51:16;;;;;;;0.70;0.70;;;;;;;;;;7396659;19;20240;-91
2023/06/10 18:53:43;;;;;;;0.90;0.90;;;;;;;;;;7398601;19;20149;-88
2023/06/10 18:56:12;;;;;;;0.35;0.35;;;;;;;;;;7398718;19;20149;-89
2023/06/10 18:58:39;;;;;;;1.00;1.00;;;;;;;;;;7397403;19;20170;-88
2023/06/10 19:01:06;;;;;;;1.05;0.95;;;;;;;;;;7397601;19;20132;-88
2023/06/10 19:03:33;;;;;;;1.95;1.85;;;;;;;;;;7398086;19;20522;-89
2023/06/10 19:06:00;;;;;;;3.30;3.05;;;;;;;;;;7402190;19;20145;-88
2023/06/10 19:08:30;;;;;;;4.93;4.50;;;;;;;;;;7404513;19;20143;-88
2023/06/10 19:10:57;;;;;;;6.65;5.78;;;;;;;;;;7402855;19;20634;-88
2023/06/10 19:13:24;;;;;;;9.30;8.50;;;;;;;;;;7403725;19;20198;-88
2023/06/10 19:15:51;;;;;;;14.65;13.05;;;;;;;;;;7406585;19;20300;-89
2023/06/10 19:18:18;;;;;;;8.85;8.05;;;;;;;;;;7404285;19;20133;-89
2023/06/10 19:20:45;;;;;;;7.60;6.90;;;;;;;;;;7405327;19;20129;-89
2023/06/10 19:23:12;;;;;;;5.75;4.97;;;;;;;;;;7404307;19;20165;-89
2023/06/10 19:25:38;;;;;;;4.88;4.53;;;;;;;;;;7405016;19;20136;-89
2023/06/10 19:28:08;;;;;;;2.95;2.50;;;;;;;;;;7406013;19;20212;-89
2023/06/10 19:30:35;;;;;;;2.15;1.95;;;;;;;;;;7407550;19;20557;-89
2023/06/10 19:33:02;;;;;;;1.63;1.52;;;;;;;;;;7403270;19;20167;-89
2023/06/10 19:35:29;;;;;;;0.70;0.70;;;;;;;;;;7403032;19;20153;-88
2023/06/10 19:37:56;;;;;;;2.80;1.98;;;;;;;;;;7404158;19;20151;-89
2023/06/10 19:40:23;;;;;;;1.10;1.10;;;;;;;;;;7401901;19;20188;-88
2023/06/10 19:43:49;;;;;;;1.20;1.17;;;;;;;;;;7398343;19;20173;-88
2023/06/10 19:47:05;;;;;;;2.40;1.98;;;;;;;;;;7396589;19;20521;-89
2023/06/10 19:53:36;;;;;;;1.92;1.60;;;;;;;;;;7399461;19;20189;-88
2023/06/10 19:56:06;;;;;;;1.05;1.05;;;;;;;;;;7398769;19;20661;-87
2023/06/10 19:58:33;;;;;;;1.20;1.20;;;;;;;;;;7402909;19;20216;-89
2023/06/10 20:01:00;;;;;;;1.45;1.35;;;;;;;;;;7403612;19;20580;-88
2023/06/10 20:03:27;;;;;;;1.55;1.38;;;;;;;;;;7403099;19;20137;-88
2023/06/10 20:05:54;;;;;;;1.17;1.08;;;;;;;;;;7401997;19;20177;-88
2023/06/10 20:08:21;;;;;;;0.63;0.63;;;;;;;;;;7405999;19;20151;-89
2023/06/10 20:10:48;;;;;;;0.82;0.77;;;;;;;;;;7403525;19;20149;-89
2023/06/10 20:13:14;;;;;;;0.93;0.93;;;;;;;;;;7403077;19;20212;-88
2023/06/10 20:15:41;;;;;;;1.00;1.00;;;;;;;;;;7404962;19;20136;-88
2023/06/10 20:18:08;;;;;;;1.35;1.27;;;;;;;;;;7404147;19;20156;-88
2023/06/10 20:20:35;;;;;;;1.63;1.38;;;;;;;;;;7405269;19;21212;-88
2023/06/10 20:23:01;;;;;;;1.27;1.20;;;;;;;;;;7403785;19;20153;-88
2023/06/10 20:25:29;;;;;;;0.77;0.77;;;;;;;;;;7409678;19;20145;-88
2023/06/10 20:27:56;;;;;;;1.30;0.90;;;;;;;;;;7426866;19;20133;-87
2023/06/10 20:30:23;;;;;;;0.93;0.93;;;;;;;;;;7427650;19;20200;-88
2023/06/10 20:32:50;;;;;;;0.77;0.77;;;;;;;;;;7427978;19;20213;-87
2023/06/10 20:35:17;;;;;;;0.88;0.88;;;;;;;;;;7409635;19;20494;-88
2023/06/10 20:37:45;;;;;;;0.80;0.80;;;;;;;;;;7403824;19;20208;-88
2023/06/10 20:40:13;;;;;;;1.13;0.85;;;;;;;;;;7400782;19;20144;-88
2023/06/10 20:42:40;;;;;;;0.63;0.63;;;;;;;;;;7404610;19;20193;-88
2023/06/10 20:45:07;;;;;;;1.00;1.00;;;;;;;;;;7404195;19;20504;-89
2023/06/10 20:47:34;;;;;;;0.95;0.95;;;;;;;;;;7406336;19;20137;-88
2023/06/10 20:50:02;;;;;;;0.85;0.85;;;;;;;;;;7402334;19;20135;-89
2023/06/10 20:52:29;;;;;;;0.93;0.80;;;;;;;;;;7400299;19;20148;-89
2023/06/10 20:54:55;;;;;;;0.80;0.80;;;;;;;;;;7397826;19;20137;-89
2023/06/10 20:57:23;;;;;;;0.98;0.98;;;;;;;;;;7401137;19;20145;-89
2023/06/10 20:59:50;;;;;;;1.05;1.00;;;;;;;;;;7402219;19;20503;-88
2023/06/10 21:02:16;;;;;;;1.15;1.13;;;;;;;;;;7404680;19;20156;-89
2023/06/10 21:04:44;;;;;;;0.57;0.57;;;;;;;;;;7404250;19;20128;-90
2023/06/10 21:07:11;;;;;;;0.77;0.77;;;;;;;;;;7408201;19;20142;-89
2023/06/10 21:09:37;;;;;;;0.70;0.70;;;;;;;;;;7410361;19;20141;-89
2023/06/10 21:12:06;;;;;;;0.65;0.65;;;;;;;;;;7409351;19;20183;-89
2023/06/10 21:14:33;;;;;;;1.10;1.10;;;;;;;;;;7407268;19;20142;-89
2023/06/10 21:16:59;;;;;;;0.93;0.93;;;;;;;;;;7409091;19;20125;-89
2023/06/10 21:19:26;;;;;;;1.10;1.10;;;;;;;;;;7406633;19;20143;-88
2023/06/10 21:21:53;;;;;;;1.48;1.38;;;;;;;;;;7398062;19;20149;-89
2023/06/10 21:24:20;;;;;;;0.65;0.65;;;;;;;;;;7398207;19;20137;-89
2023/06/10 21:26:47;;;;;;;0.85;0.82;;;;;;;;;;7399712;19;20774;-88
2023/06/10 21:29:14;;;;;;;1.00;1.00;;;;;;;;;;7404939;19;20136;-90
2023/06/10 21:31:40;;;;;;;0.60;0.60;;;;;;;;;;7404208;19;20172;-90
2023/06/10 21:34:11;;;;;;;1.00;1.00;;;;;;;;;;7398812;19;20575;-89
2023/06/10 21:36:38;;;;;;;0.60;0.60;;;;;;;;;;7399185;19;20137;-89
2023/06/10 21:39:05;;;;;;;0.68;0.68;;;;;;;;;;7399701;19;20158;-90
2023/06/10 21:41:32;;;;;;;1.05;1.05;;;;;;;;;;7396387;19;20153;-89
2023/06/10 21:43:59;;;;;;;2.28;0.73;;;;;;;;;;7398269;19;20500;-89
2023/06/10 21:46:26;;;;;;;0.50;0.50;;;;;;;;;;7397412;19;20145;-90
2023/06/10 21:48:52;;;;;;;0.82;0.75;;;;;;;;;;7401305;19;20131;-90
2023/06/10 21:51:19;;;;;;;0.43;0.43;;;;;;;;;;7402630;19;20164;-90
2023/06/10 21:53:46;;;;;;;0.63;0.63;;;;;;;;;;7404613;19;20559;-91
2023/06/10 21:56:12;;;;;;;1.75;1.65;;;;;;;;;;7402320;19;20141;-90
2023/06/10 21:58:44;;;;;;;1.10;1.10;;;;;;;;;;7402551;19;20137;-89
2023/06/10 22:01:14;;;;;;;1.05;1.05;;;;;;;;;;7403309;19;20224;-90
2023/06/10 22:03:41;;;;;;;0.63;0.63;;;;;;;;;;7404014;19;20125;-90
2023/06/10 22:06:08;;;;;;;0.68;0.68;;;;;;;;;;7404833;19;20148;-89
2023/06/10 22:08:35;;;;;;;0.70;0.70;;;;;;;;;;7404876;19;20569;-90
2023/06/10 22:11:02;;;;;;;0.85;0.60;;;;;;;;;;7404958;19;20135;-89
2023/06/10 22:13:29;;;;;;;0.63;0.63;;;;;;;;;;7405487;19;20935;-89
2023/06/10 22:15:55;;;;;;;1.00;1.00;;;;;;;;;;7403247;19;20140;-89
2023/06/10 22:18:22;;;;;;;0.52;0.52;;;;;;;;;;7394167;19;20145;-88
2023/06/10 22:20:49;;;;;;;0.80;0.80;;;;;;;;;;7397013;19;20133;-88
2023/06/10 22:23:22;;;;;;;0.65;0.65;;;;;;;;;;7400073;19;20125;-89
2023/06/10 22:25:48;;;;;;;0.95;0.95;;;;;;;;;;7397237;19;20145;-89
2023/06/10 22:28:15;;;;;;;1.65;0.88;;;;;;;;;;7397275;19;20820;-88
2023/06/10 22:30:42;;;;;;;0.73;0.73;;;;;;;;;;7396188;19;20147;-88
2023/06/10 22:33:08;;;;;;;0.75;0.75;;;;;;;;;;7395302;19;20174;-88
2023/06/10 22:35:36;;;;;;;0.88;0.85;;;;;;;;;;7396048;19;20140;-90
2023/06/10 22:38:03;;;;;;;0.90;0.90;;;;;;;;;;7399821;19;20488;-89
2023/06/10 22:40:31;;;;;;;1.08;0.98;;;;;;;;;;7397428;19;20172;-89
2023/06/10 22:42:59;;;;;;;1.20;1.10;;;;;;;;;;7395108;19;20180;-90
2023/06/10 22:45:28;;;;;;;0.90;0.90;;;;;;;;;;7395818;19;20133;-90
2023/06/10 22:47:56;;;;;;;0.80;0.80;;;;;;;;;;7397412;19;20145;-90
2023/06/10 22:50:24;;;;;;;0.77;0.77;;;;;;;;;;7398921;19;20152;-90
2023/06/10 22:52:51;;;;;;;1.77;0.88;;;;;;;;;;7392377;19;20168;-88
2023/06/10 22:55:18;;;;;;;0.70;0.70;;;;;;;;;;7394257;19;20149;-88
2023/06/10 22:57:45;;;;;;;1.17;0.90;;;;;;;;;;7399948;19;20167;-88
2023/06/10 23:00:13;;;;;;;0.98;0.98;;;;;;;;;;7401784;19;20972;-90
2023/06/10 23:02:40;;;;;;;0.80;0.80;;;;;;;;;;7402746;19;20571;-88
2023/06/10 23:05:07;;;;;;;0.85;0.85;;;;;;;;;;7408625;19;20125;-89
2023/06/10 23:07:34;;;;;;;0.75;0.75;;;;;;;;;;7406819;19;20156;-88
2023/06/10 23:10:01;;;;;;;0.88;0.88;;;;;;;;;;7407381;19;20650;-89
2023/06/10 23:12:28;;;;;;;0.75;0.75;;;;;;;;;;7405181;19;20156;-88
2023/06/10 23:14:54;;;;;;;0.60;0.60;;;;;;;;;;7405487;19;20144;-90
2023/06/10 23:17:21;;;;;;;0.60;0.60;;;;;;;;;;7399482;19;20144;-90
2023/06/10 23:19:48;;;;;;;2.05;0.80;;;;;;;;;;7400324;19;20869;-90
2023/06/10 23:22:17;;;;;;;1.13;1.13;;;;;;;;;;7399759;19;20164;-89
2023/06/10 23:24:44;;;;;;;0.47;0.47;;;;;;;;;;7398740;19;20137;-90
2023/06/10 23:27:13;;;;;;;6.53;1.65;;;;;;;;;;7399572;19;20176;-91
2023/06/10 23:29:39;;;;;;;0.50;0.50;;;;;;;;;;7397224;19;20632;-91
2023/06/10 23:32:25;;;;;;;0.73;0.73;;;;;;;;;;7395419;19;20176;-90
2023/06/10 23:34:52;;;;;;;0.65;0.65;;;;;;;;;;7398889;19;20137;-91
2023/06/10 23:37:19;;;;;;;0.90;0.90;;;;;;;;;;7400311;19;20662;-90
2023/06/10 23:39:47;;;;;;;0.70;0.70;;;;;;;;;;7399556;19;20141;-91
2023/06/10 23:42:16;;;;;;;1.00;1.00;;;;;;;;;;7398147;19;20186;-91
2023/06/10 23:44:42;;;;;;;0.52;0.52;;;;;;;;;;7399708;19;20161;-91
2023/06/10 23:47:09;;;;;;;3.60;1.38;;;;;;;;;;7397389;19;20484;-91
2023/06/10 23:49:36;;;;;;;0.95;0.95;;;;;;;;;;7402384;19;20129;-91
2023/06/10 23:52:03;;;;;;;0.80;0.80;;;;;;;;;;7400124;19;20160;-92
2023/06/10 23:54:30;;;;;;;1.70;1.40;;;;;;;;;;7401315;19;20141;-88
2023/06/10 23:56:57;;;;;;;0.60;0.60;;;;;;;;;;7401082;19;20145;-89
2023/06/10 23:59:25;;;;;;;0.77;0.77;;;;;;;;;;7402165;19;20141;-89
